createdAt,value
2022-09-03T00:04:23.630Z,99879.22
2022-09-03T00:09:34.234Z,99879.13
2022-09-03T00:14:52.716Z,99881.28
2022-09-03T00:20:00.288Z,99883.78
2022-09-03T00:25:07.330Z,99882.63
2022-09-03T00:30:14.607Z,99883.13
2022-09-03T00:35:37.734Z,99887.16
2022-09-03T00:41:08.631Z,99886.69
2022-09-03T00:46:23.627Z,99894.34
2022-09-03T00:51:33.276Z,99896.25
2022-09-03T00:56:52.415Z,99899.78
2022-09-03T01:02:01.171Z,99895.44
2022-09-03T01:07:18.495Z,99892.63
2022-09-03T01:12:25.941Z,99887.31
2022-09-03T01:18:00.102Z,99889.28
2022-09-03T01:23:20.503Z,99894.78
2022-09-03T01:28:21.916Z,99899.13
2022-09-03T01:33:46.300Z,99901.69
2022-09-03T01:38:56.222Z,99904.16
2022-09-03T01:44:21.612Z,99912.75
2022-09-03T01:49:41.353Z,99912.34
2022-09-03T01:54:50.481Z,99925.38
2022-09-03T01:59:54.882Z,99908.16
2022-09-03T02:05:14.265Z,99915.84
2022-09-03T02:10:30.099Z,99898.94
2022-09-03T02:15:34.659Z,99913.00
2022-09-03T02:20:37.777Z,99904.84
2022-09-03T02:25:44.736Z,99902.88
2022-09-03T02:30:46.678Z,99900.28
2022-09-03T02:35:48.845Z,99895.34
2022-09-03T02:40:50.265Z,99897.97
2022-09-03T02:45:57.017Z,99891.47
2022-09-03T02:50:59.106Z,99898.75
2022-09-03T02:56:01.431Z,99900.19
2022-09-03T03:01:02.946Z,99902.31
2022-09-03T03:06:07.102Z,99908.06
2022-09-03T03:11:08.534Z,99899.81
2022-09-03T03:16:10.305Z,99897.91
2022-09-03T03:21:15.000Z,99907.53
2022-09-03T03:26:19.085Z,99914.13
2022-09-03T03:31:22.628Z,99917.16
2022-09-03T03:36:26.519Z,99918.25
2022-09-03T03:41:33.830Z,99922.06
2022-09-03T03:46:37.514Z,99940.63
2022-09-03T03:51:39.232Z,99939.72
2022-09-03T03:56:40.833Z,99936.72
2022-09-03T04:01:42.334Z,99956.91
2022-09-03T04:06:43.924Z,99953.34
2022-09-03T04:11:45.371Z,99947.56
2022-09-03T04:16:47.210Z,99940.56
2022-09-03T04:21:48.719Z,99941.66
2022-09-03T04:26:54.071Z,99956.19
2022-09-03T04:32:14.006Z,99954.81
2022-09-03T04:37:16.494Z,99954.63
2022-09-03T04:42:18.005Z,99963.06
2022-09-03T04:47:19.566Z,99964.63
2022-09-03T04:52:21.354Z,99955.94
2022-09-03T04:57:23.209Z,99961.59
2022-09-03T05:02:24.735Z,99957.38
2022-09-03T05:07:28.448Z,99951.94
2022-09-03T05:12:31.719Z,99954.44
2022-09-03T05:17:37.617Z,99956.91
2022-09-03T05:22:39.288Z,99972.66
2022-09-03T05:27:40.748Z,99966.31
2022-09-03T05:32:42.552Z,99977.09
2022-09-03T05:37:44.576Z,99985.25
2022-09-03T05:42:46.075Z,99989.97
2022-09-03T05:47:47.557Z,99998.28
2022-09-03T05:52:49.319Z,99993.84
2022-09-03T05:57:53.959Z,100006.16
2022-09-03T06:02:55.547Z,100007.81
2022-09-03T06:07:57.130Z,100000.88
2022-09-03T06:13:02.965Z,99990.44
2022-09-03T06:18:05.056Z,99994.56
2022-09-03T06:23:06.551Z,100004.16
2022-09-03T06:28:09.008Z,100002.22
2022-09-03T06:33:11.150Z,100000.78
2022-09-03T06:38:12.795Z,100016.47
2022-09-03T06:43:14.278Z,100016.56
2022-09-03T06:48:15.986Z,100008.50
2022-09-03T06:53:17.486Z,100007.44
2022-09-03T06:58:18.958Z,100011.50
2022-09-03T07:03:21.397Z,100020.16
2022-09-03T07:08:22.936Z,100019.03
2022-09-03T07:13:25.073Z,100013.84
2022-09-03T07:18:26.614Z,100024.41
2022-09-03T07:23:29.400Z,100020.44
2022-09-03T07:28:34.808Z,100028.84
2022-09-03T07:33:36.235Z,100041.91
2022-09-03T07:38:38.028Z,100055.75
2022-09-03T07:43:49.778Z,100066.94
2022-09-03T07:48:53.238Z,100067.22
2022-09-03T07:53:57.752Z,100087.31
2022-09-03T07:58:59.665Z,100084.59
2022-09-03T08:04:02.636Z,100081.03
2022-09-03T08:09:07.205Z,100089.47
2022-09-03T08:14:13.821Z,100074.88
2022-09-03T08:19:18.388Z,100061.19
2022-09-03T08:24:22.179Z,100054.03
2022-09-03T08:29:23.668Z,100060.53
2022-09-03T08:34:25.195Z,100055.97
2022-09-03T08:39:26.862Z,100055.06
2022-09-03T08:44:29.617Z,100042.06
2022-09-03T08:50:02.476Z,100041.44
2022-09-03T08:55:25.901Z,100048.91
2022-09-03T09:00:49.195Z,100051.13
2022-09-03T09:06:23.969Z,100051.50
2022-09-03T09:11:28.352Z,100055.22
2022-09-03T09:16:42.851Z,100047.25
2022-09-03T09:21:52.981Z,100040.63
2022-09-03T09:26:59.443Z,100042.13
2022-09-03T09:32:01.534Z,100043.16
2022-09-03T09:37:07.805Z,100041.75
2022-09-03T09:42:12.044Z,100037.66
2022-09-03T09:47:21.344Z,100048.97
2022-09-03T09:52:26.007Z,100047.13
2022-09-03T09:57:27.515Z,100042.84
2022-09-03T10:02:29.354Z,100034.34
2022-09-03T10:07:32.981Z,100033.63
2022-09-03T10:12:43.455Z,100026.47
2022-09-03T10:18:03.626Z,100028.03
2022-09-03T10:23:04.999Z,100027.81
2022-09-03T10:28:13.320Z,100013.53
2022-09-03T10:33:29.797Z,100006.34
2022-09-03T10:38:34.581Z,100018.44
2022-09-03T10:43:39.137Z,100022.00
2022-09-03T10:49:09.002Z,100024.63
2022-09-03T10:54:32.553Z,100034.97
2022-09-03T10:59:46.301Z,100029.59
2022-09-03T11:05:03.060Z,100030.47
2022-09-03T11:10:11.695Z,100027.53
2022-09-03T11:15:42.576Z,100031.19
2022-09-03T11:20:44.874Z,100034.06
2022-09-03T11:25:59.336Z,100024.53
2022-09-03T11:31:17.613Z,100015.75
2022-09-03T11:36:35.406Z,100021.72
2022-09-03T11:41:37.628Z,100011.75
2022-09-03T11:46:40.508Z,100012.16
2022-09-03T11:51:44.033Z,100003.31
2022-09-03T11:56:47.888Z,100002.56
2022-09-03T12:01:58.390Z,99991.63
2022-09-03T12:07:08.809Z,99993.91
2022-09-03T12:12:28.931Z,100001.41
2022-09-03T12:17:40.193Z,100004.94
2022-09-03T12:22:42.457Z,100001.56
2022-09-03T12:27:46.408Z,99998.66
2022-09-03T12:32:48.155Z,99995.09
2022-09-03T12:38:09.891Z,99993.16
2022-09-03T12:48:39.475Z,100009.88
2022-09-03T12:53:42.168Z,100019.66
2022-09-03T12:58:58.354Z,100020.72
2022-09-03T13:04:10.375Z,100032.63
2022-09-03T13:09:14.340Z,100043.91
2022-09-03T13:14:17.628Z,100047.41
2022-09-03T13:19:26.746Z,100052.94
2022-09-03T13:25:02.833Z,100046.28
2022-09-03T13:30:21.018Z,100036.19
2022-09-03T13:35:48.234Z,100024.75
2022-09-03T13:40:59.803Z,100016.41
2022-09-03T13:46:17.335Z,100011.72
2022-09-03T13:51:31.971Z,100006.81
2022-09-03T13:56:48.725Z,100010.13
2022-09-03T14:02:32.252Z,100009.69
2022-09-03T14:08:08.257Z,100004.88
2022-09-03T14:13:20.670Z,99997.91
2022-09-03T14:18:50.833Z,100010.75
2022-09-03T14:23:52.202Z,100011.34
2022-09-03T14:29:11.983Z,100017.75
2022-09-03T14:34:16.218Z,100005.72
2022-09-03T14:39:28.410Z,100016.94
2022-09-03T14:44:44.780Z,100039.50
2022-09-03T14:49:49.435Z,100031.16
2022-09-03T14:55:05.842Z,100035.25
2022-09-03T15:00:33.579Z,100031.59
2022-09-03T15:05:58.291Z,100034.25
2022-09-03T15:11:03.136Z,100050.09
2022-09-03T15:16:25.674Z,100065.00
2022-09-03T15:21:55.226Z,100060.88
2022-09-03T15:27:10.399Z,100064.03
2022-09-03T15:32:22.670Z,100062.25
2022-09-03T15:37:35.213Z,100058.72
2022-09-03T15:42:38.667Z,100059.59
2022-09-03T15:47:51.357Z,100062.34
2022-09-03T15:53:05.066Z,100060.56
2022-09-03T15:58:26.328Z,100065.50
2022-09-03T16:04:16.877Z,100071.81
2022-09-03T16:09:18.379Z,100066.84
2022-09-03T16:14:46.481Z,100058.22
2022-09-03T16:19:57.020Z,100050.41
2022-09-03T16:25:20.228Z,100052.16
2022-09-03T16:30:40.992Z,100043.97
2022-09-03T16:35:59.281Z,100043.47
2022-09-03T16:41:30.408Z,100047.09
2022-09-03T16:47:01.530Z,100045.78
2022-09-03T16:52:18.974Z,100040.75
2022-09-03T16:57:46.790Z,100034.19
2022-09-03T17:03:07.229Z,100036.56
2022-09-03T17:08:29.058Z,100027.28
2022-09-03T17:14:00.033Z,100038.50
2022-09-03T17:19:32.707Z,100045.84
2022-09-03T17:24:38.233Z,100057.06
2022-09-03T17:30:10.559Z,100055.66
2022-09-03T17:35:19.387Z,100051.28
2022-09-03T17:40:46.512Z,100059.78
2022-09-03T17:46:22.520Z,100070.03
2022-09-03T17:51:39.312Z,100068.13
2022-09-03T17:57:05.010Z,100076.28
2022-09-03T18:02:24.664Z,100086.63
2022-09-03T18:07:43.469Z,100099.78
2022-09-03T18:12:59.850Z,100108.66
2022-09-03T18:18:18.926Z,100108.09
2022-09-03T18:23:48.442Z,100108.88
2022-09-03T18:29:21.966Z,100108.44
2022-09-03T18:34:50.458Z,100120.28
2022-09-03T18:40:10.314Z,100120.66
2022-09-03T18:51:52.576Z,100139.41
2022-09-03T18:57:13.017Z,100152.81
2022-09-03T19:02:48.158Z,100151.59
2022-09-03T19:08:24.933Z,100153.72
2022-09-03T19:13:50.984Z,100156.75
2022-09-03T19:19:31.789Z,100162.56
2022-09-03T19:24:52.222Z,100163.00
2022-09-03T19:30:21.711Z,100168.06
2022-09-03T19:35:49.088Z,100169.66
2022-09-03T19:41:41.873Z,100177.53
2022-09-03T19:47:08.677Z,100187.25
2022-09-03T19:52:51.066Z,100189.56
2022-09-03T19:58:41.557Z,100185.66
2022-09-03T20:03:59.346Z,100180.09
2022-09-03T20:09:27.403Z,100187.53
2022-09-03T20:14:33.210Z,100186.50
2022-09-03T20:19:45.470Z,100190.47
2022-09-03T20:24:58.624Z,100192.13
2022-09-03T20:30:15.751Z,100193.47
2022-09-03T20:35:40.075Z,100208.06
2022-09-03T20:40:46.805Z,100205.03
2022-09-03T20:46:15.222Z,100215.34
2022-09-03T20:51:21.812Z,100221.81
2022-09-03T20:57:02.103Z,100220.25
2022-09-03T21:02:32.006Z,100231.16
2022-09-03T21:08:12.465Z,100231.84
2022-09-03T21:13:51.738Z,100238.66
2022-09-03T21:19:11.923Z,100242.91
2022-09-03T21:24:42.937Z,100244.56
2022-09-03T21:29:59.618Z,100241.25
2022-09-03T21:35:28.335Z,100239.06
2022-09-03T21:40:33.434Z,100246.91
2022-09-03T21:45:50.277Z,100253.81
2022-09-03T21:51:00.190Z,100249.25
2022-09-03T21:56:30.720Z,100258.75
2022-09-03T22:01:59.183Z,100270.09
2022-09-03T22:07:05.851Z,100277.09
2022-09-03T22:12:54.090Z,100273.06
2022-09-03T22:18:08.368Z,100274.91
2022-09-03T22:23:21.075Z,100276.94
2022-09-03T22:28:36.884Z,100281.00
2022-09-03T22:33:56.398Z,100283.03
2022-09-03T22:39:07.720Z,100277.34
2022-09-03T22:44:14.862Z,100285.50
2022-09-03T22:49:31.678Z,100299.00
2022-09-03T22:54:43.897Z,100299.78
2022-09-03T22:59:59.618Z,100308.94
2022-09-03T23:05:32.794Z,100308.63
2022-09-03T23:10:36.438Z,100316.47
2022-09-03T23:15:41.924Z,100305.44
2022-09-03T23:20:59.379Z,100305.03
2022-09-03T23:26:22.278Z,100304.66
2022-09-03T23:31:26.816Z,100317.88
2022-09-03T23:36:54.981Z,100310.41
2022-09-03T23:42:29.934Z,100318.75
2022-09-03T23:48:22.083Z,100326.00
2022-09-03T23:53:52.897Z,100333.03
2022-09-03T23:59:00.003Z,100332.63
